Weather observations for the past three days for
St. James Municipal Airport
Imperial (Metric)
Date Time (cdt) Wind (mph) Vis. (mi.) Weather Sky Cond. Temperature (ºF) Relative Humidity Wind Chill (°F) Heat Index (°F) Pressure Precipitation (in)
Air Dwpt 6 hour altimeter (in) sea level (mb) 1 hr 3 hr 6 hr
Max. Min.
07 04:55 NE 7 10.00 Overcast SCT060 BKN075 OVC085 32 28.4 87% 26 29.91 0.0
07 04:35 NE 6 10.00 Overcast OVC075 32 28.4 87% 27 29.92 0.0
07 04:15 E 3 10.00 Mostly Cloudy BKN075 BKN090 32 28.4 87% 29.91 0.0
07 03:55 Calm 10.00 Partly Cloudy SCT090 32 28.4 87% 29.92 0.0
07 03:35 E 5 10.00 Partly Cloudy SCT075 SCT110 33.8 28.4 81% 30 29.91 0.0
07 03:15 Calm 10.00 Overcast OVC075 33.8 30.2 87% 29.92 0.0
07 02:55 N 5 10.00 Overcast OVC075 33.8 30.2 87% 30 29.93 0.0
07 02:35 Calm 10.00 Overcast BKN075 OVC085 33.8 28.4 81% 29.93 0.0
07 02:15 Calm 10.00 Overcast OVC075 35.6 30.2 81% 29.93 0.0
07 01:55 Calm 10.00 Overcast OVC070 37.4 28.4 70% 29.94 0.0
07 01:35 Calm 10.00 Overcast OVC075 35.6 30.2 81% 29.95 0.0
07 01:15 Calm 10.00 Overcast OVC075 37.4 30.2 75% 29.95 0.0
07 00:55 Calm 10.00 Overcast OVC075 37.4 28.4 70% 29.96 0.0
07 00:35 Calm 10.00 Overcast OVC075 37.4 24.8 60% 29.95 0.0
07 00:15 Calm 10.00 Overcast OVC075 37.4 26.6 65% 29.95 0.0
06 23:55 Calm 10.00 Overcast OVC075 39.2 26.6 61% 29.95 0.0
06 23:35 Calm 10.00 Overcast OVC075 37.4 24.8 60% 29.96 0.0
06 23:15 E 5 10.00 Overcast BKN075 OVC090 37.4 26.6 65% 34 29.96 0.0
06 22:55 E 5 10.00 Mostly Cloudy SCT075 BKN090 37.4 24.8 60% 34 29.96 0.0
06 22:35 E 7 10.00 A Few Clouds FEW100 39.2 24.8 56% 35 29.96 0.0
06 22:15 E 5 10.00 Fair CLR 41 24.8 53% 38 29.97 0.0
06 21:55 E 5 10.00 Fair CLR 41 24.8 53% 38 29.97 0.0
06 21:35 NE 6 10.00 Fair CLR 41 24.8 53% 38 29.97 0.0
06 21:15 NE 6 10.00 Partly Cloudy SCT070 SCT080 42.8 24.8 49% 40 29.96 0.0
06 20:55 NE 5 9.00 Mostly Cloudy BKN070 BKN075 42.8 24.8 49% 41 29.96 0.0
06 20:35 NE 5 6.00 Overcast with Haze OVC070 44.6 24.8 46% 43 29.96 0.0
06 20:15 NE 7 10.00 Overcast OVC075 46.4 24.8 43% 43 29.96 0.0
06 19:55 N 5 10.00 Overcast BKN070 OVC080 46.4 26.6 46% 45 29.96 0.0
06 19:35 N 8 10.00 Overcast BKN070 OVC085 48.2 26.6 43% 45 29.96 0.0
06 19:15 N 13 10.00 Mostly Cloudy BKN070 BKN085 50 24.8 37% 46 29.96 0.0
06 18:55 N 10 G 16 10.00 Partly Cloudy SCT070 SCT080 50 24.8 37% 46 29.96 0.0
06 18:35 NW 12 G 21 10.00 Partly Cloudy SCT070 50 23 35% 46 29.97 0.0
06 18:15 NW 12 G 21 10.00 Mostly Cloudy BKN070 50 23 35% 46 29.97 0.0
06 17:55 N 10 G 16 10.00 Mostly Cloudy BKN070 50 23 35% 46 29.98 0.0
06 17:35 NW 14 10.00 Mostly Cloudy BKN065 BKN080 50 24.8 37% 45 29.98 0.0
06 17:15 NW 18 10.00 Mostly Cloudy BKN070 BKN080 51.8 26.6 38% 29.98 0.0
06 16:55 NW 13 G 23 9.00 Mostly Cloudy BKN060 50 26.6 40% 46 29.99 0.0
06 16:35 NW 14 G 26 7.00 Mostly Cloudy BKN060 51.8 24.8 35% 29.99 0.0
06 16:15 NW 13 G 32 10.00 Mostly Cloudy BKN060 BKN070 50 23 35% 46 30 0.0
06 15:55 NW 17 G 28 10.00 Overcast OVC055 50 23 35% 45 30 0.0
06 15:35 NW 14 G 23 10.00 Mostly Cloudy BKN055 48.2 23 37% 43 30.01 0.0
06 15:15 NW 13 G 24 10.00 Mostly Cloudy BKN055 50 23 35% 46 30.02 0.0
06 14:55 NW 10 G 28 10.00 Mostly Cloudy BKN050 BKN055 48.2 23 37% 44 30.02 0.0
06 14:35 NW 17 10.00 Mostly Cloudy BKN050 BKN055 48.2 23 37% 42 30.02 0.0
06 14:15 NW 15 G 24 10.00 Overcast BKN050 OVC055 46.4 23 40% 41 30.03 0.0
06 13:55 NW 17 G 24 10.00 Overcast OVC050 46.4 23 40% 40 30.03 0.0
06 13:35 NW 16 G 23 10.00 Overcast OVC050 46.4 23 40% 40 30.04 0.0
06 13:15 NW 13 G 25 10.00 Overcast BKN050 OVC055 44.6 23 43% 39 30.04 0.0
06 12:55 NW 16 10.00 Overcast BKN048 OVC055 46.4 24.8 43% 40 30.04 0.0
06 12:35 NW 13 G 22 10.00 Overcast OVC050 44.6 23 43% 39 30.04 0.0
06 12:15 NW 17 G 26 10.00 Overcast OVC050 44.6 23 43% 38 30.05 0.0
06 11:55 NW 22 10.00 Overcast and Breezy OVC050 44.6 23 43% 37 30.04 0.0
06 11:35 NW 17 G 24 10.00 Overcast OVC049 42.8 23 46% 35 30.05 0.0
06 11:15 NW 16 G 24 10.00 Overcast OVC049 42.8 21.2 42% 36 30.05 0.0
06 10:55 NW 18 G 26 10.00 Overcast OVC050 42.8 21.2 42% 35 30.05 0.0
06 10:35 NW 20 10.00 Overcast OVC050 42.8 21.2 42% 35 30.04 0.0
06 10:15 NW 18 10.00 Overcast OVC050 41 21.2 45% 33 30.04 0.0
06 09:55 NW 18 10.00 Overcast OVC055 42.8 23 46% 35 30.04 0.0
06 09:35 NW 16 10.00 Overcast OVC055 41 23 49% 33 30.04 0.0
06 09:15 NW 10 10.00 Overcast OVC050 41 24.8 53% 35 30.04 0.0
06 08:55 NW 13 10.00 Overcast OVC050 39.2 26.6 61% 32 30.04 0.0
06 08:35 NW 13 10.00 Overcast OVC050 39.2 24.8 56% 32 30.04 0.0
06 08:15 NW 12 10.00 Overcast OVC050 39.2 26.6 61% 33 30.04 0.0
06 07:55 NW 12 10.00 Overcast OVC055 39.2 24.8 56% 33 30.03 0.0
06 07:35 NW 10 10.00 Overcast OVC060 39.2 24.8 56% 33 30.03 0.0
06 07:15 NW 6 10.00 Overcast OVC060 37.4 26.6 65% 33 30.02 0.0
06 06:55 NW 8 10.00 Overcast OVC060 37.4 26.6 65% 32 30.01 0.0
06 06:35 NW 7 10.00 Overcast OVC060 37.4 26.6 65% 33 30 0.0
06 06:15 NW 6 10.00 Overcast OVC060 37.4 26.6 65% 33 30 0.0
06 05:55 NW 7 10.00 Overcast OVC060 37.4 24.8 60% 33 29.99 0.0
06 05:35 NW 7 10.00 Overcast OVC060 37.4 24.8 60% 33 29.98 0.0
06 05:15 NW 6 10.00 Overcast OVC065 37.4 24.8 60% 33 29.98 0.0
06 04:55 NW 7 10.00 Overcast OVC065 37.4 24.8 60% 33 29.99 0.0
06 04:35 NW 6 10.00 Overcast OVC065 37.4 24.8 60% 33 29.98 0.0
06 04:15 NW 7 10.00 Overcast OVC065 37.4 24.8 60% 33 29.98 0.0
06 03:55 NW 7 10.00 Overcast OVC065 37.4 24.8 60% 33 29.97 0.0
06 03:35 NW 8 10.00 Overcast OVC070 37.4 24.8 60% 32 29.97 0.0
06 03:15 NW 7 10.00 Overcast OVC070 35.6 26.6 70% 31 29.98 0.0
06 02:55 NW 6 10.00 Overcast OVC070 35.6 26.6 70% 31 29.97 0.0
06 02:35 W 5 10.00 Overcast OVC070 35.6 26.6 70% 32 29.97 0.0
06 02:15 NW 6 10.00 Overcast OVC070 35.6 26.6 70% 31 29.97 0.0
06 01:55 NW 5 10.00 Overcast OVC070 35.6 24.8 65% 32 29.96 0.0
06 01:35 NW 5 10.00 Overcast OVC075 33.8 24.8 70% 30 29.96 0.0
06 01:15 NW 6 10.00 Overcast OVC075 33.8 24.8 70% 29 29.96 0.0
06 00:55 NW 6 10.00 Overcast SCT060 OVC075 35.6 23 60% 31 29.96 0.0
06 00:35 NW 7 10.00 Overcast SCT060 OVC070 35.6 24.8 65% 31 29.96 0.0
06 00:15 NW 6 10.00 Overcast OVC070 37.4 24.8 60% 33 29.96 0.0
05 23:55 NW 7 10.00 Mostly Cloudy BKN070 35.6 24.8 65% 31 29.96 0.0
05 23:35 NW 8 10.00 Fair CLR 37.4 23 56% 32 29.95 0.0
05 23:15 NW 8 9.00 Fair CLR 37.4 23 56% 32 29.95 0.0
05 22:55 NW 7 10.00 Fair CLR 37.4 23 56% 33 29.95 0.0
05 22:35 N 9 10.00 Fair CLR 39.2 24.8 56% 34 29.94 0.0
05 22:15 N 12 10.00 Mostly Cloudy SCT065 BKN075 41 24.8 53% 35 29.94 0.0
05 21:55 N 14 10.00 Overcast SCT065 OVC075 42.8 24.8 49% 36 29.93 0.0
05 21:35 N 13 10.00 Overcast OVC075 44.6 24.8 46% 39 29.93 0.0
05 21:15 N 12 10.00 Overcast OVC075 44.6 24.8 46% 39 29.92 0.0
05 20:55 N 12 G 20 10.00 Overcast OVC075 46.4 24.8 43% 42 29.91 0.0
05 20:35 N 14 10.00 Overcast OVC075 46.4 24.8 43% 41 29.9 0.0
05 20:15 NW 15 G 24 10.00 Overcast OVC075 48.2 21.2 34% 43 29.89 0.0
05 19:55 NW 20 10.00 Overcast FEW065 OVC080 48.2 21.2 34% 42 29.88 0.0
05 19:35 NW 17 10.00 Overcast SCT070 OVC080 48.2 21.2 34% 42 29.88 0.0
05 19:15 NW 18 10.00 Overcast OVC075 50 21.2 32% 44 29.87 0.0
05 18:55 NW 15 G 24 10.00 Overcast OVC075 50 21.2 32% 45 29.87 0.0
05 18:35 NW 24 10.00 Overcast and Breezy OVC075 50 19.4 30% 43 29.86 0.0
05 18:15 NW 22 10.00 Overcast and Breezy OVC075 50 21.2 32% 44 29.86 0.0
05 17:55 NW 18 10.00 Overcast OVC075 50 21.2 32% 44 29.86 0.0
05 17:35 NW 21 G 26 10.00 Overcast and Breezy OVC075 51.8 21.2 30% 29.85 0.0
05 17:15 NW 17 10.00 Overcast OVC075 51.8 21.2 30% 29.85 0.0
05 16:55 NW 16 G 25 10.00 Overcast BKN075 OVC085 51.8 21.2 30% 29.85 0.0
05 16:35 NW 17 G 23 10.00 Overcast OVC080 51.8 21.2 30% 29.86 0.0
05 16:15 NW 22 10.00 Mostly Cloudy and Breezy BKN080 51.8 21.2 30% 29.85 0.0
05 15:55 NW 17 G 24 10.00 Mostly Cloudy BKN075 BKN080 53.6 21.2 28% 29.86 0.0
05 15:35 NW 17 G 24 10.00 Overcast BKN070 OVC080 51.8 21.2 30% 29.86 0.0
05 15:15 NW 13 G 22 10.00 Overcast OVC075 51.8 21.2 30% 29.87 0.0
05 14:55 NW 18 G 26 10.00 Overcast OVC080 51.8 21.2 30% 29.87 0.0
05 14:35 NW 13 G 23 10.00 Overcast BKN075 OVC085 51.8 21.2 30% 29.87 0.0
05 14:15 NW 15 G 22 10.00 Overcast FEW065 OVC075 50 21.2 32% 45 29.88 0.0
05 13:55 NW 16 G 23 10.00 Overcast BKN065 OVC075 50 23 35% 45 29.87 0.0
05 13:35 NW 16 G 24 10.00 Overcast BKN070 OVC080 50 21.2 32% 45 29.88 0.0
05 13:15 N 16 10.00 Overcast OVC075 51.8 23 32% 29.87 0.0
05 12:55 NW 17 G 23 10.00 Overcast BKN070 OVC075 50 23 35% 45 29.87 0.0
05 12:35 NW 18 10.00 Overcast BKN065 OVC075 50 23 35% 44 29.87 0.0
05 12:15 NW 15 10.00 Overcast BKN065 OVC075 50 23 35% 45 29.87 0.0
05 11:55 NW 14 G 21 10.00 Mostly Cloudy BKN070 BKN075 50 23 35% 45 29.87 0.0
05 11:35 NW 13 G 18 10.00 Mostly Cloudy FEW060 BKN070 50 24.8 37% 46 29.87 0.0
05 11:15 N 13 G 21 10.00 Mostly Cloudy SCT050 SCT055 BKN070 50 24.8 37% 46 29.88 0.0
05 10:55 NW 10 G 20 10.00 Mostly Cloudy SCT050 BKN055 BKN075 48.2 26.6 43% 44 29.88 0.0
05 10:35 NW 12 10.00 A Few Clouds FEW050 FEW055 48.2 26.6 43% 44 29.88 0.0
05 10:15 NW 10 G 18 10.00 Fair CLR 46.4 26.6 46% 42 29.88 0.0
05 09:55 NW 8 9.00 Fair CLR 46.4 26.6 46% 43 29.88 0.0
05 09:35 NW 7 10.00 Fair CLR 44.6 26.6 49% 41 29.87 0.0
05 09:15 N 9 10.00 Fair CLR 44.6 26.6 49% 40 29.87 0.0
05 08:55 NW 7 G 13 10.00 Fair CLR 44.6 26.6 49% 41 29.86 0.0
05 08:35 NW 8 10.00 A Few Clouds FEW060 42.8 28.4 57% 39 29.86 0.0
05 08:15 NW 7 10.00 Fair CLR 41 30.2 66% 37 29.85 0.0
05 07:55 W 5 10.00 Fair CLR 39.2 28.4 65% 36 29.85 0.0
05 07:35 W 5 10.00 Fair CLR 37.4 30.2 75% 34 29.84 0.0
05 07:15 W 6 10.00 Fair CLR 35.6 30.2 81% 31 29.84 0.0
05 06:55 NW 7 10.00 Fair CLR 32 28.4 87% 26 29.83 0.0
05 06:35 NW 6 10.00 Fair CLR 30.2 26.6 86% 25 29.81 0.0
05 06:15 NW 7 10.00 Fair CLR 32 26.6 80% 26 29.81 0.0
05 05:55 NW 8 10.00 Fair CLR 30.2 26.6 86% 23 29.8 0.0
05 05:35 W 9 10.00 Fair CLR 30.2 26.6 86% 23 29.8 0.0
05 05:15 NW 9 10.00 Fair CLR 30.2 26.6 86% 23 29.79 0.0
05 04:55 NW 9 10.00 Fair CLR 32 26.6 80% 25 29.79 0.0
05 04:35 W 8 10.00 Fair CLR 32 26.6 80% 25 29.79 0.0
05 04:15 W 8 10.00 Fair CLR 32 26.6 80% 25 29.79 0.0
05 03:55 W 8 10.00 Fair CLR 33.8 26.6 75% 28 29.78 0.0
05 03:35 W 9 10.00 Fair CLR 32 26.6 80% 25 29.78 0.0
05 03:15 W 9 10.00 Fair CLR 32 26.6 80% 25 29.78 0.0
05 02:55 W 8 10.00 Fair CLR 33.8 26.6 75% 28 29.77 0.0
05 02:35 W 8 10.00 Fair CLR 33.8 26.6 75% 28 29.77 0.0
05 02:15 W 8 10.00 Fair CLR 35.6 26.6 70% 30 29.77 0.0
05 01:55 W 9 10.00 Fair CLR 35.6 26.6 70% 29 29.77 0.0
05 01:35 W 8 10.00 Fair CLR 35.6 26.6 70% 30 29.77 0.0
05 01:15 W 9 10.00 Fair CLR 37.4 26.6 65% 31 29.77 0.0
05 00:55 W 8 10.00 Fair CLR 37.4 26.6 65% 32 29.77 0.0
05 00:35 W 7 10.00 Fair CLR 35.6 26.6 70% 31 29.77 0.0
05 00:15 W 7 10.00 Fair CLR 37.4 26.6 65% 33 29.77 0.0
04 23:55 W 7 10.00 Fair CLR 39.2 26.6 61% 35 29.76 0.0
04 23:35 W 7 10.00 Fair CLR 37.4 26.6 65% 33 29.76 0.0
04 23:15 W 7 10.00 Fair CLR 39.2 26.6 61% 35 29.76 0.0
04 22:55 W 6 10.00 Fair CLR 41 26.6 57% 38 29.76 0.0
04 22:35 NW 6 10.00 Fair CLR 42.8 24.8 49% 40 29.76 0.0
04 22:15 NW 8 10.00 Fair CLR 42.8 24.8 49% 39 29.76 0.0
04 21:55 NW 8 10.00 Fair CLR 46.4 24.8 43% 43 29.76 0.0
04 21:35 NW 9 10.00 Fair CLR 46.4 24.8 43% 42 29.75 0.0
04 21:15 N 12 10.00 Fair CLR 46.4 24.8 43% 42 29.74 0.0
04 20:55 NW 15 G 22 10.00 Fair CLR 48.2 24.8 40% 43 29.73 0.0
04 20:35 NW 21 10.00 Fair and Breezy CLR 50 23 35% 44 29.72 0.0
04 20:15 NW 21 G 28 10.00 Fair and Breezy CLR 51.8 24.8 35% 29.71 0.0
04 19:55 NW 22 G 31 10.00 Fair and Breezy CLR 51.8 24.8 35% 29.7 0.0
04 19:35 NW 21 G 30 10.00 Fair and Breezy CLR 53.6 24.8 33% 29.69 0.0
04 19:15 NW 23 G 29 10.00 Fair and Breezy CLR 53.6 26.6 35% 29.68 0.0
04 18:55 NW 24 G 33 10.00 Fair and Breezy CLR 55.4 26.6 33% 29.68 0.0
04 18:35 NW 25 G 37 10.00 A Few Clouds and Breezy FEW060 55.4 28.4 36% 29.68 0.0
04 18:15 NW 28 G 35 10.00 Fair and Windy CLR 55.4 28.4 36% 29.67 0.0
04 17:55 NW 26 G 37 10.00 Fair and Windy CLR 55.4 28.4 36% 29.67 0.0
04 17:35 NW 24 G 33 10.00 A Few Clouds and Breezy FEW065 57.2 30.2 36% 29.66 0.0
04 17:15 NW 29 G 39 10.00 Partly Cloudy and Windy SCT065 60.8 30.2 31% 29.64 0.0
04 16:55 NW 24 G 33 10.00 Fair and Breezy CLR 60.8 30.2 31% 29.63 0.0
04 16:35 NW 29 10.00 Fair and Windy CLR 62.6 30.2 30% 29.63 0.0
04 16:15 NW 25 G 35 10.00 Fair and Breezy CLR 60.8 28.4 29% 29.62 0.0
04 15:55 NW 23 G 39 10.00 Fair and Breezy CLR 60.8 30.2 31% 29.62 0.0
04 15:35 NW 26 G 38 10.00 Fair and Windy CLR 60.8 30.2 31% 29.62 0.0
04 15:15 NW 24 G 33 10.00 A Few Clouds and Breezy FEW120 60.8 30.2 31% 29.62 0.0
04 14:55 NW 23 G 35 9.00 Fair and Breezy CLR 62.6 30.2 30% 29.62 0.0
04 14:35 NW 28 G 39 9.00 Fair and Windy CLR 60.8 28.4 29% 29.61 0.0
04 14:15 NW 29 9.00 Fair and Windy CLR 62.6 26.6 25% 29.6 0.0
04 13:55 NW 26 G 36 7.00 Fair and Windy CLR 62.6 26.6 25% 29.59 0.0
04 13:35 NW 24 G 35 8.00 Fair and Breezy CLR 64.4 32 30% 29.59 0.0
04 13:15 NW 30 G 40 7.00 Fair and Windy CLR 62.6 28.4 27% 29.59 0.0
04 12:55 NW 31 G 38 6.00 Unknown Precip Haze and Windy CLR 62.6 30.2 30% 29.58 0.0
04 12:35 NW 24 G 33 4.00 Unknown Precip Haze and Breezy CLR 64.4 35.6 34% 29.57 0.0
04 12:15 NW 23 G 33 3.00 Unknown Precip Haze and Breezy CLR 64.4 32 30% 29.57 0.0
04 11:55 NW 22 G 29 10.00 Fair and Breezy CLR 64.4 33.8 32% 29.56 0.0
04 11:35 NW 21 G 33 9.00 Fair and Breezy CLR 64.4 32 30% 29.56 0.0
04 11:15 NW 23 G 31 9.00 Fair and Breezy CLR 64.4 32 30% 29.55 0.0
04 10:55 N 22 G 31 10.00 Fair and Breezy CLR 62.6 33.8 34% 29.54 0.0
04 10:35 NW 24 10.00 Fair and Breezy CLR 62.6 33.8 34% 29.54 0.0
04 10:15 NW 20 G 28 10.00 Fair CLR 60.8 33.8 36% 29.54 0.0
04 09:55 NW 22 10.00 Fair and Breezy CLR 60.8 33.8 36% 29.54 0.0
04 09:35 N 21 G 32 10.00 Fair and Breezy CLR 60.8 32 34% 29.54 0.0
04 09:15 N 22 G 29 10.00 Fair and Breezy CLR 59 35.6 42% 29.53 0.0
04 08:55 NW 20 G 26 10.00 Fair CLR 60.8 39.2 45% 29.53 0.0
04 08:35 NW 20 G 25 10.00 Fair CLR 60.8 39.2 45% 29.52 0.0
04 08:15 NW 22 G 28 10.00 Fair and Breezy CLR 59 39.2 48% 29.52 0.0
04 07:55 W 21 10.00 Fair and Breezy CLR 59 37.4 45% 29.52 0.0
04 07:35 W 17 10.00 Fair CLR 59 39.2 48% 29.51 0.0
04 07:15 W 17 10.00 Fair CLR 59 37.4 45% 29.48 0.0
04 06:55 W 21 10.00 Fair and Breezy CLR 59 37.4 45% 29.47 0.0
04 06:35 SW 21 G 28 10.00 Fair and Breezy CLR 57.2 37.4 48% 29.46 0.0
04 06:15 SW 20 10.00 Fair CLR 57.2 37.4 48% 29.46 0.0
04 05:55 SW 15 10.00 Fair CLR 55.4 37.4 51% 29.47 0.0
04 05:35 SW 16 10.00 Fair CLR 53.6 35.6 51% 29.47 0.0
04 05:15 SW 15 10.00 Fair CLR 53.6 35.6 51% 29.48 0.0
Date Time (cdt) Wind (mph) Vis. (mi.) Weather Sky Cond. Air Dwpt Max. Min. Relative Humidity Wind Chill (°F) Heat Index (°F) altimeter (in) sea level (mb) 1 hr 3 hr 6 hr
6 hour
Temperature (ºF) Pressure Precipitation (in)